Flight Track Log - Related Links

Times and Time Zones

All times are in EDT time to prevent confusion due to time zone crossing. See the SWA3143 flight status page for this flight to view local times or setup timezone preferences in your user account.

Time Position Orientation Groundspeed Altitude Reporting Facility
EDT Latitude Longitude Course Direction KTS MPH feet Rate Location/Type
Sat 08:23:15 PM 30.2061 -97.8583 291° West 281 323 8,900  Level Houston Center
Sat 08:24:16 PM 30.2261 -97.9608 283° West 284 327 12,900 3,220 Climbing Houston Center
Sat 08:25:18 PM 30.2472 -98.0583 284° West 291 335 15,500 2,732 Climbing Houston Center
Sat 08:26:00 PM 30.4167 -97.9718 270° West  Level FlightAware Approximate
Sat 08:26:19 PM 30.2669 -98.1556 283° West 307 353 18,500  Level Houston Center
Sat 08:27:00 PM 30.4273 -98.0898 278° West  Level FlightAware Approximate
Sat 08:27:20 PM 30.2858 -98.2514 283° West 307 353 21,000  Level Houston Center
Sat 08:28:22 PM 30.3081 -98.3550 284° West 321 369 22,600 1,805 Climbing Houston Center
Sat 08:29:23 PM 30.3300 -98.4639 283° West 346 398 24,700 1,869 Climbing Houston Center
Sat 08:30:24 PM 30.3511 -98.5742 283° West 348 400 26,400 1,377 Climbing Houston Center
Sat 08:31:25 PM 30.3758 -98.6936 284° West 375 432 27,500 1,415 Climbing Houston Center
Sat 08:32:27 PM 30.4031 -98.8197 284° West 398 458 29,300 1,805 Climbing Houston Center
Sat 08:33:28 PM 30.4300 -98.9431 284° West 392 451 31,200 1,672 Climbing Houston Center
Sat 08:34:29 PM 30.4556 -99.0647 284° West 386 444 32,700 1,377 Climbing Houston Center
Sat 08:35:30 PM 30.4794 -99.1792 284° West 389 448 34,000 1,366 Climbing Houston Center
Sat 08:36:32 PM 30.5042 -99.2983 284° West 382 440 35,500 976 Climbing Houston Center
Sat 08:37:33 PM 30.5325 -99.4408 283° West 381 438 36,000 246 Climbing Houston Center
Sat 08:38:34 PM 30.5581 -99.5608 284° West 384 442 36,000  Level Houston Center
Sat 08:39:35 PM 30.5822 -99.6814 283° West 386 444 36,000 -49 Level Houston Center
Sat 08:40:36 PM 30.6053 -99.8003 283° West 379 436 35,900  Descending Houston Center
Sat 08:41:37 PM 30.6306 -99.9214 284° West 387 445 36,000 49 Climbing Houston Center
Sat 08:42:39 PM 30.6550 -100.0444 283° West 390 449 36,000  Level Houston Center
Sat 08:43:40 PM 30.6800 -100.1653 284° West 384 442 36,000  Level Houston Center
Sat 08:44:41 PM 30.7053 -100.2903 283° West 396 456 36,000  Level Houston Center
Sat 08:45:42 PM 30.7328 -100.4344 283° West 387 445 36,000  Level Houston Center
Sat 08:46:43 PM 30.7569 -100.5536 283° West 383 441 36,000  Level Houston Center
Sat 08:47:44 PM 30.7786 -100.6725 282° West 378 435 36,000  Level Houston Center
Sat 08:48:45 PM 30.8022 -100.7925 283° West 381 438 36,000  Level Houston Center
Sat 08:49:46 PM 30.8258 -100.9136 283° West 386 444 36,000  Level Houston Center
Sat 08:50:48 PM 30.8497 -101.0372 283° West 391 450 36,000 -49 Level Houston Center
Sat 08:51:49 PM 30.8725 -101.1606 282° West 391 450 35,900  Descending Houston Center
Sat 08:52:50 PM 30.8975 -101.2822 283° West 389 448 36,000 49 Climbing Houston Center
Sat 08:53:51 PM 30.9208 -101.4006 283° West 384 442 36,000  Level Houston Center
Sat 08:54:52 PM 30.9411 -101.5211 281° West 378 435 36,000  Level Houston Center
Sat 08:55:53 PM 30.9675 -101.6631 282° West 376 433 36,000  Level Houston Center
Sat 08:56:54 PM 30.9900 -101.7844 282° West 384 442 36,000  Level Houston Center
Sat 08:57:09 PM 30.9944 -101.8075 283° West 381 438 36,000  Level Albuquerque Center
Sat 08:58:10 PM 31.0156 -101.9319 281° West 405 466 36,000  Level Albuquerque Center
Sat 08:59:11 PM 31.0394 -102.0589 282° West 405 466 36,000  Level Albuquerque Center
Sat 09:00:13 PM 31.0628 -102.1833 282° West 395 455 36,000  Level Albuquerque Center
Sat 09:01:14 PM 31.0858 -102.3058 282° West 389 448 36,000  Level Albuquerque Center
Sat 09:02:15 PM 31.1072 -102.4292 281° West 389 448 36,000  Level Albuquerque Center
Sat 09:03:17 PM 31.1292 -102.5586 281° West 383 441 36,000  Level Albuquerque Center
Sat 09:04:18 PM 31.1514 -102.6808 282° West 382 440 36,000  Level Albuquerque Center
Sat 09:05:19 PM 31.1728 -102.8042 281° West 385 443 36,000  Level Albuquerque Center
Sat 09:06:21 PM 31.1947 -102.9267 282° West 386 444 36,000  Level Albuquerque Center
Sat 09:07:22 PM 31.2200 -103.0758 281° West 388 447 36,000  Level Albuquerque Center
Sat 09:08:23 PM 31.2414 -103.1972 282° West 386 444 36,000  Level Albuquerque Center
Sat 09:09:25 PM 31.2631 -103.3194 282° West 383 441 36,000  Level Albuquerque Center
Sat 09:10:26 PM 31.2828 -103.4392 281° West 378 435 36,000  Level Albuquerque Center
Sat 09:11:27 PM 31.3033 -103.5583 281° West 375 432 36,000  Level Albuquerque Center
Sat 09:12:29 PM 31.3233 -103.6803 281° West 379 436 36,000  Level Albuquerque Center
Sat 09:13:30 PM 31.3453 -103.8089 281° West 386 444 36,000  Level Albuquerque Center
Sat 09:14:32 PM 31.3661 -103.9322 281° West 387 445 36,000 -49 Level Albuquerque Center
Sat 09:15:33 PM 31.3850 -104.0528 280° West 381 438 35,900  Descending Albuquerque Center
Sat 09:16:34 PM 31.4075 -104.1744 282° West 382 440 36,000 49 Climbing Albuquerque Center
Sat 09:17:36 PM 31.4286 -104.2969 281° West 385 443 36,000  Level Albuquerque Center
Sat 09:18:37 PM 31.4517 -104.4467 280° West 390 449 36,000  Level Albuquerque Center
Sat 09:19:38 PM 31.4650 -104.5717 277° West 390 449 36,000 -49 Level Albuquerque Center
Sat 09:20:40 PM 31.4781 -104.6972 277° West 390 449 35,900 -1,659 Descending Albuquerque Center
Sat 09:21:41 PM 31.4914 -104.8244 277° West 394 453 32,600 -3,073 Descending Albuquerque Center
Sat 09:22:43 PM 31.5050 -104.9517 277° West 395 455 29,600 -2,683 Descending Albuquerque Center
Sat 09:23:44 PM 31.5169 -105.0764 276° West 394 453 27,100 -2,410 Descending Albuquerque Center
Sat 09:24:45 PM 31.5294 -105.1947 277° West 385 443 24,700 -2,488 Descending Albuquerque Center
Sat 09:25:47 PM 31.5425 -105.3264 277° West 360 414 22,000 -2,530 Descending Albuquerque Center
Sat 09:26:08 PM 31.5458 -105.3664 276° West 340 391 21,200 -2,164 Descending Albuquerque Center
Sat 09:26:48 PM 31.5528 -105.4342 277° West 337 388 19,800 -2,164 Descending Albuquerque Center
Sat 09:27:09 PM 31.5553 -105.4736 274° West 328 377 19,000 -2,129 Descending Albuquerque Center
Sat 09:27:50 PM 31.5631 -105.5369 278° West 320 368 17,600 -2,100 Descending Albuquerque Center
Sat 09:28:09 PM 31.5642 -105.5764 272° West 317 365 16,900 -1,967 Descending Albuquerque Center
Sat 09:28:51 PM 31.5719 -105.6361 279° West 308 354 15,600 -1,967 Descending Albuquerque Center
Sat 09:29:10 PM 31.5758 -105.6731 277° West 299 344 14,900 -1,967 Descending Albuquerque Center
Sat 09:29:52 PM 31.5817 -105.7322 277° West 299 344 13,600 -2,060 Descending Albuquerque Center
Sat 09:30:17 PM 31.5858 -105.7828 276° West 288 331 12,600 -1,839 Descending Albuquerque Center
Sat 09:30:54 PM 31.5964 -105.8222 287° West 286 329 11,700 -1,800 Descending Albuquerque Center
Sat 09:31:17 PM 31.6206 -105.8664 303° West 285 328 10,800 -1,377 Descending Albuquerque Center
Sat 09:31:55 PM 31.6381 -105.9011 301° West 282 325 10,300 -787 Descending Albuquerque Center
Sat 09:32:18 PM 31.6581 -105.9419 300° West 271 312 10,000 -787 Descending Albuquerque Center
Sat 09:32:56 PM 31.6753 -105.9744 302° West 264 304 9,500 -1,300 Descending Albuquerque Center
Sat 09:33:18 PM 31.6956 -106.0172 299° West 260 299 8,700 -1,279 Descending Albuquerque Center
Sat 09:33:57 PM 31.7131 -106.0497 302° West 267 307 8,200 -764 Descending Albuquerque Center
Sat 09:34:13 PM 31.7286 -106.0814 300° West 253 291 8,000 -290 Descending Albuquerque Center
Sat 09:34:59 PM 31.7469 -106.1303 294° West 230 265 7,900 -448 Descending Albuquerque Center
Sat 09:35:20 PM 31.7550 -106.1547 291° West 215 247 7,500 -1,082 Descending Albuquerque Center
Sat 09:36:00 PM 31.7683 -106.1947 291° West 215 247 6,800 -1,069 Descending Albuquerque Center
Sat 09:37:01 PM 31.7878 -106.2517 292° West 192 221 5,700 -878 Descending Albuquerque Center
Sat 09:38:03 PM 31.7983 -106.2964 286° West 147 169 5,000 -732 Descending Albuquerque Center
Sat 09:39:04 PM 31.8006 -106.3450 273° West 133 153 4,200 -541 Descending Albuquerque Center
Sat 09:40:05 PM 31.8022 -106.3778 273° West 127 146 3,900 -295 Descending Albuquerque Center
Sat 09:42:00 PM 31.8000 -106.3667 270° West  Level FlightAware Approximate
Sat 09:49:00 PM 31.8072 -106.3764 270° West  Level Estimated
Sat 09:50:00 PM 31.8072 -106.3764 270° West  Level Estimated
Sat 09:51:00 PM 31.8072 -106.3764 270° West  Level Estimated

Login

Don't have an account? Register now (free) for customized features, flight alerts, and more!